Time;durP1;ratioP1;P1;durP2;ratioP2;P2;SDS_P1;SDS_P2;PMS_P1;PMS_P2;Temp;Humidity;BMP_temperature;BMP_pressure;BME280_temperature;BME280_humidity;BME280_pressure;Samples;Min_cycle;Max_cycle;Signal;HPM_P1;HPM_P2
2021/12/16 00:01:48;;;;;;;18.42;9.02;;;8.20;99.90;;;;;;5129735;27;20044;-64
2021/12/16 00:09:41;;;;;;;14.30;8.77;;;8.20;99.90;;;;;;5100084;28;20044;-64
2021/12/16 00:33:36;;;;;;;18.27;10.45;;;8.00;99.90;;;;;;5098512;28;20036;-63
2021/12/16 00:36:04;;;;;;;18.63;11.73;;;8.10;99.90;;;;;;5097997;28;20067;-64
2021/12/16 00:38:31;;;;;;;20.98;12.30;;;8.00;99.90;;;;;;5129375;27;20052;-64
2021/12/16 00:40:59;;;;;;;18.70;11.52;;;8.00;99.90;;;;;;5101340;28;20410;-64
2021/12/16 00:43:41;;;;;;;18.08;12.30;;;8.00;99.90;;;;;;5100437;28;20460;-64
2021/12/16 00:54:10;;;;;;;24.23;13.65;;;8.00;99.90;;;;;;5098633;28;20244;-64
2021/12/16 00:56:37;;;;;;;24.20;14.18;;;7.90;99.90;;;;;;5096908;28;20968;-64
2021/12/16 00:59:05;;;;;;;24.10;12.90;;;8.00;99.90;;;;;;5095329;28;20039;-64
2021/12/16 01:01:55;;;;;;;22.45;14.43;;;8.00;99.90;;;;;;5095439;28;20050;-63
2021/12/16 01:34:38;;;;;;;27.20;16.30;;;7.80;99.90;;;;;;5097615;28;20043;-64
2021/12/16 01:37:43;;;;;;;29.13;17.57;;;7.90;99.90;;;;;;5098364;28;20048;-63
2021/12/16 01:40:27;;;;;;;28.83;17.60;;;7.90;99.90;;;;;;5097667;27;20116;-64
2021/12/16 01:49:03;;;;;;;30.27;18.42;;;7.90;99.90;;;;;;5097890;28;20127;-64
2021/12/16 01:51:25;;;;;;;30.73;17.52;;;7.90;99.90;;;;;;5097427;28;20450;-63
2021/12/16 01:54:35;;;;;;;33.80;19.58;;;7.80;99.90;;;;;;5098682;28;20039;-64
2021/12/16 01:57:11;;;;;;;33.10;18.92;;;7.80;99.90;;;;;;5097243;27;20039;-63
2021/12/16 01:59:39;;;;;;;37.22;20.13;;;7.80;99.90;;;;;;5099481;27;20088;-63
2021/12/16 02:03:01;;;;;;;32.92;19.23;;;7.80;99.90;;;;;;5129417;27;20039;-64
2021/12/16 02:08:20;;;;;;;27.15;18.85;;;7.70;99.90;;;;;;5096453;28;20082;-63
2021/12/16 02:10:24;;;;;;;37.50;19.90;;;7.70;99.90;;;;;;5091615;28;20131;-64
2021/12/16 02:13:09;;;;;;;33.17;20.92;;;7.60;99.90;;;;;;5097021;27;20052;-64
2021/12/16 02:32:06;;;;;;;35.83;21.45;;;7.50;99.90;;;;;;5098933;28;20040;-64
2021/12/16 02:34:56;;;;;;;38.50;22.27;;;7.50;99.90;;;;;;5096866;28;20055;-64
2021/12/16 02:37:20;;;;;;;34.40;20.92;;;7.50;99.90;;;;;;5093850;28;20047;-64
2021/12/16 02:39:47;;;;;;;48.05;22.45;;;7.40;99.90;;;;;;5128342;27;20381;-64
2021/12/16 02:42:18;;;;;;;32.22;21.42;;;7.50;99.90;;;;;;5096674;28;20046;-64
2021/12/16 02:50:17;;;;;;;34.55;21.38;;;7.50;99.90;;;;;;5128582;27;20410;-64
2021/12/16 02:52:43;;;;;;;34.03;21.42;;;7.40;99.90;;;;;;5096379;28;20110;-64
2021/12/16 02:55:11;;;;;;;43.30;22.60;;;7.40;99.90;;;;;;5097998;28;20028;-63
2021/12/16 02:57:45;;;;;;;31.42;21.10;;;7.50;99.90;;;;;;5098046;28;20039;-64
2021/12/16 03:00:14;;;;;;;37.15;22.13;;;7.50;99.90;;;;;;5096587;28;20044;-64
2021/12/16 03:02:43;;;;;;;43.03;23.38;;;7.40;99.90;;;;;;5097276;28;20036;-63
2021/12/16 03:05:10;;;;;;;34.58;21.95;;;7.40;99.90;;;;;;5128581;27;20055;-63
2021/12/16 03:07:36;;;;;;;38.42;23.75;;;7.40;99.90;;;;;;5096291;28;20048;-63
2021/12/16 03:10:39;;;;;;;42.25;23.02;;;7.40;99.90;;;;;;5097670;28;20480;-63
2021/12/16 03:13:10;;;;;;;40.33;23.92;;;7.40;99.90;;;;;;5129365;27;20040;-64
2021/12/16 03:16:29;;;;;;;39.78;22.88;;;7.30;99.90;;;;;;5095788;28;20562;-64
2021/12/16 03:21:10;;;;;;;41.05;23.17;;;7.30;99.90;;;;;;5127420;27;20059;-63
2021/12/16 03:23:50;;;;;;;41.22;23.45;;;7.30;99.90;;;;;;5096594;28;20482;-63
2021/12/16 03:31:58;;;;;;;39.45;22.80;;;7.40;99.90;;;;;;5083752;28;20066;-64
2021/12/16 03:34:59;;;;;;;34.80;22.75;;;7.50;99.90;;;;;;5100562;28;20047;-63
2021/12/16 03:37:20;;;;;;;40.65;22.25;;;7.40;99.90;;;;;;5102194;28;20043;-63
2021/12/16 03:39:53;;;;;;;38.40;22.70;;;7.40;99.90;;;;;;5100959;28;20081;-64
2021/12/16 03:42:46;;;;;;;35.88;22.27;;;7.60;99.90;;;;;;5131868;27;20098;-63
2021/12/16 03:48:17;;;;;;;40.97;22.10;;;7.50;99.90;;;;;;5103112;28;20056;-64
2021/12/16 03:50:43;;;;;;;44.83;24.00;;;7.50;99.90;;;;;;5104938;28;20577;-63
2021/12/16 03:53:09;;;;;;;41.75;22.17;;;7.50;99.90;;;;;;5104046;28;20078;-64
2021/12/16 03:55:36;;;;;;;34.85;21.52;;;7.40;99.90;;;;;;5102662;28;20425;-64
2021/12/16 03:58:02;;;;;;;37.03;22.42;;;7.40;99.90;;;;;;5101545;28;20032;-63
2021/12/16 04:00:34;;;;;;;40.65;22.90;;;7.40;99.90;;;;;;5133919;27;20039;-64
2021/12/16 04:03:00;;;;;;;40.75;22.83;;;7.40;99.90;;;;;;5102717;27;20123;-63
2021/12/16 04:05:27;;;;;;;34.55;22.45;;;7.30;99.90;;;;;;5106416;28;20073;-63
2021/12/16 04:07:52;;;;;;;38.72;22.30;;;7.30;99.90;;;;;;5102265;28;20057;-64
2021/12/16 04:10:34;;;;;;;35.28;22.08;;;7.30;99.90;;;;;;5103427;28;20039;-63
2021/12/16 04:13:05;;;;;;;27.80;18.90;;;7.30;99.90;;;;;;5135851;27;20039;-63
2021/12/16 04:15:31;;;;;;;44.90;22.95;;;7.30;99.90;;;;;;5134187;27;20043;-64
2021/12/16 04:17:57;;;;;;;34.10;21.70;;;7.30;99.90;;;;;;5104665;28;20075;-63
2021/12/16 04:20:23;;;;;;;32.08;19.85;;;7.30;99.90;;;;;;5104937;27;20071;-64
2021/12/16 04:22:49;;;;;;;35.42;20.88;;;7.30;99.90;;;;;;5103320;28;21610;-63
2021/12/16 04:25:23;;;;;;;38.15;20.80;;;7.30;99.90;;;;;;5105682;28;20119;-64
2021/12/16 04:27:53;;;;;;;44.50;22.38;;;7.30;99.90;;;;;;5102487;28;20547;-63
2021/12/16 04:30:23;;;;;;;33.95;19.98;;;7.40;99.90;;;;;;5103478;28;20089;-64
2021/12/16 04:32:48;;;;;;;35.03;21.05;;;7.40;99.90;;;;;;5099429;28;20812;-63
2021/12/16 04:35:15;;;;;;;39.20;21.77;;;7.40;99.90;;;;;;5104684;28;20078;-63
2021/12/16 04:37:41;;;;;;;41.20;24.65;;;7.40;99.90;;;;;;5105902;27;20050;-63
2021/12/16 04:40:10;;;;;;;47.42;24.35;;;7.30;99.90;;;;;;5104341;28;20490;-63
2021/12/16 04:42:37;;;;;;;35.22;21.33;;;7.40;99.90;;;;;;5101035;28;20075;-64
2021/12/16 04:45:08;;;;;;;31.92;20.45;;;7.40;99.90;;;;;;5101970;28;20036;-63
2021/12/16 04:47:35;;;;;;;44.78;23.48;;;7.30;99.90;;;;;;5101810;28;20050;-63
2021/12/16 04:50:01;;;;;;;38.53;22.65;;;7.30;99.90;;;;;;5132612;27;20036;-64
2021/12/16 04:52:27;;;;;;;42.45;23.42;;;7.30;99.90;;;;;;5100874;28;20043;-63
2021/12/16 04:54:53;;;;;;;39.55;22.67;;;7.20;99.90;;;;;;5099165;28;20040;-63
2021/12/16 04:57:18;;;;;;;38.88;24.05;;;7.20;99.90;;;;;;5103622;27;20123;-63
2021/12/16 04:59:44;;;;;;;32.15;22.08;;;7.20;99.90;;;;;;5103504;27;20447;-64
2021/12/16 05:02:16;;;;;;;39.47;23.17;;;7.10;99.90;;;;;;5085229;28;20048;-63
2021/12/16 05:04:42;;;;;;;36.10;22.83;;;7.10;99.90;;;;;;5106402;27;20043;-63
2021/12/16 05:07:09;;;;;;;41.47;22.27;;;7.10;99.90;;;;;;5102714;28;20043;-63
2021/12/16 05:12:26;;;;;;;34.35;23.70;;;7.10;99.90;;;;;;5106230;28;20051;-63
2021/12/16 05:14:52;;;;;;;31.23;20.73;;;7.10;99.90;;;;;;5104550;27;20040;-63
2021/12/16 05:17:32;;;;;;;37.67;22.20;;;7.10;99.90;;;;;;5102583;28;20036;-64
2021/12/16 05:20:03;;;;;;;42.13;20.75;;;7.10;99.90;;;;;;5102905;28;20035;-64
2021/12/16 05:25:24;;;;;;;28.27;20.33;;;7.00;99.90;;;;;;5102735;28;20125;-63
2021/12/16 05:27:50;;;;;;;41.88;22.40;;;7.00;99.90;;;;;;5100909;28;20063;-64
2021/12/16 05:30:16;;;;;;;38.28;22.08;;;7.00;99.90;;;;;;5102397;27;20071;-64
2021/12/16 05:32:45;;;;;;;30.88;21.17;;;7.00;99.90;;;;;;5101446;28;20058;-64
2021/12/16 05:35:17;;;;;;;30.20;20.77;;;7.00;99.90;;;;;;5100298;28;20866;-63
2021/12/16 05:37:57;;;;;;;24.05;16.40;;;7.00;99.90;;;;;;5107176;27;20486;-64
2021/12/16 05:40:27;;;;;;;15.85;12.85;;;7.00;99.90;;;;;;5106993;27;20031;-64
2021/12/16 05:42:56;;;;;;;53.85;14.82;;;7.00;99.90;;;;;;5085731;28;20071;-64
2021/12/16 05:45:23;;;;;;;22.08;15.52;;;7.00;99.90;;;;;;5104016;28;20492;-64
2021/12/16 05:47:50;;;;;;;48.03;22.27;;;7.00;99.90;;;;;;5104071;28;20435;-64
2021/12/16 05:50:17;;;;;;;33.38;20.50;;;6.90;99.90;;;;;;5098453;28;20043;-64
2021/12/16 05:52:43;;;;;;;30.00;18.88;;;6.90;99.90;;;;;;5106102;27;20039;-64
2021/12/16 05:55:11;;;;;;;25.73;17.77;;;7.00;99.90;;;;;;5101414;28;20046;-64
2021/12/16 05:57:38;;;;;;;31.15;19.23;;;7.10;99.90;;;;;;5098490;28;20052;-64
2021/12/16 06:00:09;;;;;;;39.45;21.60;;;7.10;99.90;;;;;;5097275;28;20063;-63
2021/12/16 06:02:35;;;;;;;30.67;20.48;;;7.10;99.90;;;;;;5101581;28;20062;-64
2021/12/16 06:05:01;;;;;;;28.77;19.13;;;7.20;99.90;;;;;;5105566;28;20509;-64
2021/12/16 06:07:26;;;;;;;30.30;21.10;;;7.10;99.90;;;;;;5099914;28;20058;-64
2021/12/16 06:09:52;;;;;;;26.50;19.25;;;7.20;99.90;;;;;;5098599;28;20032;-64
2021/12/16 06:12:17;;;;;;;28.42;20.20;;;7.20;99.90;;;;;;5094408;28;20471;-64
2021/12/16 06:27:55;;;;;;;28.67;20.55;;;7.30;99.90;;;;;;5101444;28;20051;-64
2021/12/16 06:30:27;;;;;;;32.47;19.40;;;7.40;99.90;;;;;;5098061;27;20036;-64
2021/12/16 06:32:54;;;;;;;29.17;21.65;;;7.40;99.90;;;;;;5098022;27;20036;-64
2021/12/16 06:35:20;;;;;;;31.70;21.75;;;7.50;99.90;;;;;;5097875;28;20154;-64
2021/12/16 06:37:46;;;;;;;30.05;21.40;;;7.40;99.90;;;;;;5097902;28;20154;-64
2021/12/16 06:40:13;;;;;;;31.92;21.73;;;7.50;99.90;;;;;;5096301;28;20135;-64
2021/12/16 06:42:41;;;;;;;33.92;23.30;;;7.40;99.90;;;;;;5098040;28;20040;-64
2021/12/16 06:45:15;;;;;;;40.85;21.90;;;7.30;99.90;;;;;;5094934;27;20131;-64
2021/12/16 06:47:50;;;;;;;39.38;21.77;;;7.30;99.90;;;;;;5102204;28;20096;-63
2021/12/16 06:50:28;;;;;;;33.15;22.17;;;7.20;99.90;;;;;;5097721;27;20040;-63
2021/12/16 06:52:58;;;;;;;37.65;24.17;;;7.30;99.90;;;;;;5098402;28;20044;-63
2021/12/16 06:55:39;;;;;;;36.00;22.50;;;7.30;99.90;;;;;;5096791;28;20052;-63
2021/12/16 06:58:17;;;;;;;37.45;22.52;;;7.30;99.90;;;;;;5097755;28;20466;-63
2021/12/16 07:00:47;;;;;;;39.67;23.30;;;7.30;99.90;;;;;;5097470;28;20508;-63
2021/12/16 07:03:22;;;;;;;32.33;23.67;;;7.30;99.90;;;;;;5099910;27;20490;-63
2021/12/16 07:05:52;;;;;;;39.40;23.20;;;7.30;99.90;;;;;;5127972;27;20070;-63
2021/12/16 07:08:20;;;;;;;38.33;21.95;;;7.40;99.90;;;;;;5097841;28;20109;-63
2021/12/16 07:10:48;;;;;;;32.88;21.17;;;7.40;99.90;;;;;;5097542;28;20067;-63
2021/12/16 07:13:17;;;;;;;37.33;22.88;;;7.40;99.90;;;;;;5095364;28;20040;-64
2021/12/16 07:15:44;;;;;;;33.72;22.23;;;7.50;99.90;;;;;;5095175;28;20035;-64
2021/12/16 07:18:10;;;;;;;41.60;24.33;;;7.40;99.90;;;;;;5098164;28;20101;-63
2021/12/16 07:20:37;;;;;;;43.85;26.83;;;7.40;99.90;;;;;;5093576;28;20040;-64
2021/12/16 07:23:05;;;;;;;45.72;27.00;;;7.40;99.90;;;;;;5094710;28;20080;-64
2021/12/16 07:25:31;;;;;;;39.38;25.77;;;7.30;99.90;;;;;;5099553;28;20223;-64
2021/12/16 07:27:57;;;;;;;39.85;25.40;;;7.30;99.90;;;;;;5101286;27;20124;-64
2021/12/16 07:30:24;;;;;;;45.42;26.88;;;7.30;99.90;;;;;;5101570;28;20678;-64
2021/12/16 07:32:50;;;;;;;50.78;27.92;;;7.30;99.90;;;;;;5101914;28;20128;-64
2021/12/16 07:35:20;;;;;;;61.05;29.60;;;7.30;99.90;;;;;;5095528;28;20036;-64
2021/12/16 07:37:47;;;;;;;57.60;30.58;;;7.40;99.90;;;;;;5096594;28;20068;-64
2021/12/16 07:40:18;;;;;;;43.03;27.55;;;7.30;99.90;;;;;;5096295;28;20048;-64
2021/12/16 07:45:32;;;;;;;38.60;23.75;;;7.30;99.90;;;;;;5094312;28;20607;-64
2021/12/16 07:47:59;;;;;;;37.70;22.92;;;7.30;99.90;;;;;;5097302;28;20048;-64
2021/12/16 07:50:25;;;;;;;37.25;23.23;;;7.30;99.90;;;;;;5096176;28;20043;-64
2021/12/16 07:52:51;;;;;;;40.13;24.90;;;7.30;99.90;;;;;;5097987;28;20401;-64
2021/12/16 07:55:17;;;;;;;44.00;23.63;;;7.30;99.90;;;;;;5096877;28;20036;-64
2021/12/16 07:57:43;;;;;;;35.13;23.55;;;7.30;99.90;;;;;;5096530;28;20138;-64
2021/12/16 08:00:14;;;;;;;36.53;24.15;;;7.30;99.90;;;;;;5093392;28;20443;-64
2021/12/16 08:02:40;;;;;;;37.33;24.45;;;7.30;99.90;;;;;;5129541;27;20039;-64
2021/12/16 08:05:08;;;;;;;54.00;25.98;;;7.40;99.90;;;;;;5096683;28;20451;-64
2021/12/16 08:07:34;;;;;;;45.85;27.08;;;7.30;99.90;;;;;;5095937;28;20046;-64
2021/12/16 08:10:00;;;;;;;65.40;26.48;;;7.30;99.90;;;;;;5098786;28;20111;-64
2021/12/16 08:12:26;;;;;;;33.72;23.45;;;7.30;99.90;;;;;;5098017;28;20507;-64
2021/12/16 08:14:52;;;;;;;32.40;24.45;;;7.30;99.90;;;;;;5097879;28;20035;-64
2021/12/16 08:17:18;;;;;;;44.67;26.27;;;7.40;99.90;;;;;;5097647;28;20252;-64
2021/12/16 08:19:45;;;;;;;56.72;27.90;;;7.50;99.90;;;;;;5096956;28;20493;-64
2021/12/16 08:22:11;;;;;;;105.55;31.00;;;7.40;99.90;;;;;;5132999;27;20043;-64
2021/12/16 08:24:38;;;;;;;113.43;31.23;;;7.50;99.90;;;;;;5099409;28;20138;-64
2021/12/16 08:27:04;;;;;;;179.18;36.45;;;7.50;99.90;;;;;;5094645;28;20036;-64
2021/12/16 08:29:30;;;;;;;200.65;35.72;;;7.50;99.90;;;;;;5127475;27;20697;-64
2021/12/16 08:31:56;;;;;;;148.48;30.48;;;7.50;99.90;;;;;;5096311;28;20405;-64
2021/12/16 08:34:25;;;;;;;165.30;34.03;;;7.50;99.90;;;;;;5110743;27;20040;-64
2021/12/16 08:36:51;;;;;;;121.20;32.40;;;7.50;99.90;;;;;;5094626;28;20458;-64
2021/12/16 08:39:17;;;;;;;156.57;35.08;;;7.50;99.90;;;;;;5098892;28;20397;-64
2021/12/16 08:41:49;;;;;;;85.22;30.63;;;7.50;99.90;;;;;;5087155;28;20036;-64
2021/12/16 08:44:16;;;;;;;161.90;34.60;;;7.60;99.90;;;;;;5130751;27;20047;-64
2021/12/16 08:46:48;;;;;;;115.65;33.58;;;7.60;99.90;;;;;;5093655;28;20052;-64
2021/12/16 08:49:15;;;;;;;173.63;37.33;;;7.60;99.90;;;;;;5092190;28;20044;-64
2021/12/16 08:51:45;;;;;;;142.30;34.28;;;7.60;99.90;;;;;;5093873;28;20073;-64
2021/12/16 08:54:11;;;;;;;148.68;36.00;;;7.70;99.90;;;;;;5091720;28;20548;-64
2021/12/16 08:56:38;;;;;;;190.10;37.60;;;7.70;99.90;;;;;;5096447;28;20976;-64
2021/12/16 08:59:05;;;;;;;158.57;37.75;;;7.70;99.90;;;;;;5097888;28;20118;-64
2021/12/16 09:01:35;;;;;;;132.80;33.55;;;7.60;99.90;;;;;;5094552;28;20075;-64
2021/12/16 09:04:01;;;;;;;131.55;35.15;;;7.70;99.90;;;;;;5127362;27;20553;-64
2021/12/16 09:06:27;;;;;;;123.18;32.25;;;7.70;99.90;;;;;;5093618;28;20050;-64
2021/12/16 09:08:54;;;;;;;69.20;30.00;;;7.80;99.90;;;;;;5097805;28;20043;-64
2021/12/16 09:11:23;;;;;;;70.53;28.23;;;7.70;99.90;;;;;;5129918;27;20040;-64
2021/12/16 09:13:53;;;;;;;66.28;29.40;;;7.80;99.90;;;;;;5095713;28;20048;-64
2021/12/16 09:16:23;;;;;;;83.20;31.48;;;7.90;99.90;;;;;;5095653;28;20040;-64
2021/12/16 09:18:49;;;;;;;90.03;28.95;;;7.80;99.90;;;;;;5060634;28;1034202;-64
2021/12/16 09:21:19;;;;;;;43.55;23.15;;;7.90;99.90;;;;;;5097392;28;20106;-64
2021/12/16 09:23:49;;;;;;;50.25;25.88;;;7.90;99.90;;;;;;5130083;27;20036;-64
2021/12/16 09:26:16;;;;;;;40.50;23.25;;;7.80;99.90;;;;;;5097453;28;20035;-64
2021/12/16 09:28:43;;;;;;;38.63;23.27;;;8.00;99.90;;;;;;5100260;28;20048;-64
2021/12/16 09:31:12;;;;;;;38.83;24.05;;;7.90;99.90;;;;;;5098665;28;20131;-64
2021/12/16 09:33:43;;;;;;;41.50;23.67;;;8.00;99.90;;;;;;5094155;28;20035;-64
2021/12/16 09:36:13;;;;;;;49.83;24.10;;;7.90;99.90;;;;;;5094697;28;20042;-64
2021/12/16 09:38:40;;;;;;;38.15;22.25;;;8.00;99.90;;;;;;5098182;28;20134;-64
2021/12/16 09:41:06;;;;;;;46.78;22.88;;;7.90;99.90;;;;;;5094668;28;20039;-64
2021/12/16 09:43:38;;;;;;;39.90;22.17;;;8.00;99.90;;;;;;5097868;28;20068;-64
2021/12/16 09:46:09;;;;;;;38.70;21.45;;;8.00;99.90;;;;;;5096205;28;20092;-64
2021/12/16 09:48:36;;;;;;;31.70;21.15;;;8.00;99.90;;;;;;5127886;27;20043;-64
2021/12/16 09:51:05;;;;;;;41.40;22.15;;;8.00;99.90;;;;;;5092711;28;20032;-64
2021/12/16 09:53:33;;;;;;;38.40;22.55;;;8.00;99.90;;;;;;5096143;28;20490;-64
2021/12/16 09:56:01;;;;;;;37.88;21.52;;;8.00;99.90;;;;;;5129127;27;20047;-64
2021/12/16 09:58:32;;;;;;;35.05;21.42;;;8.00;99.90;;;;;;5095245;28;20064;-64
2021/12/16 10:00:58;;;;;;;35.70;22.33;;;8.00;99.90;;;;;;5096913;28;20043;-64
2021/12/16 10:03:26;;;;;;;34.28;20.25;;;8.00;99.90;;;;;;5093259;28;20039;-64
2021/12/16 10:05:53;;;;;;;32.08;20.10;;;8.00;99.90;;;;;;5093793;28;20504;-64
2021/12/16 10:08:18;;;;;;;24.67;19.52;;;8.10;99.90;;;;;;5096002;27;20379;-64
2021/12/16 10:10:44;;;;;;;41.55;21.65;;;8.00;99.90;;;;;;5095719;28;20043;-64
2021/12/16 10:13:11;;;;;;;31.30;19.92;;;8.00;99.90;;;;;;5094758;28;20518;-64
2021/12/16 10:18:16;;;;;;;34.97;19.77;;;8.00;99.90;;;;;;5096014;28;20052;-64
2021/12/16 10:20:50;;;;;;;32.53;19.50;;;8.00;99.90;;;;;;5100347;28;20166;-64
2021/12/16 10:23:21;;;;;;;33.83;19.38;;;8.10;99.90;;;;;;5096652;28;20135;-64
2021/12/16 10:26:04;;;;;;;29.00;20.15;;;8.10;99.90;;;;;;5092303;28;20557;-64
2021/12/16 10:28:40;;;;;;;27.65;18.83;;;8.10;99.90;;;;;;5093488;28;20050;-64
2021/12/16 10:31:23;;;;;;;40.17;19.75;;;8.20;99.90;;;;;;5096603;28;20062;-64
2021/12/16 10:33:57;;;;;;;34.47;20.38;;;8.20;99.90;;;;;;5094999;27;20032;-64
2021/12/16 10:36:34;;;;;;;32.47;19.67;;;8.30;99.90;;;;;;5099812;28;20036;-64
2021/12/16 10:39:03;;;;;;;34.58;19.60;;;8.40;99.90;;;;;;5093524;28;20115;-64
2021/12/16 10:41:36;;;;;;;36.40;19.77;;;8.40;99.90;;;;;;5095059;28;20528;-64
2021/12/16 10:44:10;;;;;;;36.92;18.77;;;8.40;99.90;;;;;;5094493;28;20028;-64
2021/12/16 10:46:42;;;;;;;41.40;18.75;;;8.50;99.90;;;;;;5092874;27;20047;-64
2021/12/16 10:49:15;;;;;;;30.67;17.98;;;8.60;99.90;;;;;;5095613;28;20081;-64
2021/12/16 10:51:48;;;;;;;37.45;19.58;;;8.60;99.90;;;;;;5109896;27;20119;-64
2021/12/16 10:54:18;;;;;;;37.33;16.15;;;8.60;99.90;;;;;;5127754;27;20108;-64
2021/12/16 10:56:57;;;;;;;35.85;19.23;;;8.60;99.90;;;;;;5125996;27;20040;-64
2021/12/16 10:59:31;;;;;;;47.00;18.75;;;8.70;99.90;;;;;;5093318;28;20397;-64
2021/12/16 11:02:21;;;;;;;58.50;20.20;;;8.60;99.90;;;;;;5094315;28;20039;-64
2021/12/16 11:05:03;;;;;;;68.47;20.95;;;8.70;99.90;;;;;;5091811;28;20755;-64
2021/12/16 11:07:35;;;;;;;55.15;20.80;;;8.60;99.90;;;;;;5093860;28;20040;-64
2021/12/16 11:10:18;;;;;;;44.60;20.25;;;8.60;99.90;;;;;;5094730;28;20028;-64
2021/12/16 11:12:58;;;;;;;59.08;21.55;;;8.60;99.90;;;;;;5099032;28;20054;-64
2021/12/16 11:15:30;;;;;;;60.45;21.65;;;8.70;99.90;;;;;;5126314;27;20039;-64
2021/12/16 11:18:02;;;;;;;60.22;21.17;;;8.70;99.90;;;;;;5092779;28;20039;-64
2021/12/16 11:20:37;;;;;;;54.28;22.05;;;8.70;99.90;;;;;;5126512;27;20078;-64
2021/12/16 11:23:12;;;;;;;43.15;19.25;;;8.70;99.90;;;;;;5092828;28;20044;-64
2021/12/16 11:25:45;;;;;;;38.45;21.77;;;8.70;99.90;;;;;;5092376;28;20127;-64
2021/12/16 11:28:15;;;;;;;48.80;20.50;;;8.70;99.90;;;;;;5093729;28;20958;-64
2021/12/16 11:30:43;;;;;;;65.40;21.23;;;8.80;99.90;;;;;;5095464;28;20122;-64
2021/12/16 11:33:22;;;;;;;37.25;18.95;;;8.80;99.90;;;;;;5126889;27;20112;-64
2021/12/16 11:35:55;;;;;;;48.80;19.85;;;8.80;99.90;;;;;;5094716;28;20042;-64
2021/12/16 11:38:48;;;;;;;57.63;21.33;;;8.80;99.90;;;;;;5098365;28;20039;-64
2021/12/16 11:41:20;;;;;;;64.88;21.02;;;8.80;99.90;;;;;;5113269;28;20050;-64
2021/12/16 11:43:55;;;;;;;47.33;20.27;;;8.80;99.90;;;;;;5094645;28;20100;-64
2021/12/16 11:46:33;;;;;;;75.10;22.10;;;8.70;99.90;;;;;;5093370;28;20036;-64
2021/12/16 11:49:12;;;;;;;80.47;23.02;;;8.80;99.90;;;;;;5094236;28;20052;-64
2021/12/16 11:51:44;;;;;;;61.88;22.13;;;8.80;99.90;;;;;;5127993;27;20104;-64
2021/12/16 11:54:24;;;;;;;60.83;21.33;;;8.80;99.90;;;;;;5094784;28;20048;-64
2021/12/16 11:57:00;;;;;;;57.53;22.05;;;8.80;99.90;;;;;;5095022;28;20137;-64
2021/12/16 11:59:30;;;;;;;73.75;22.67;;;8.80;99.90;;;;;;5096952;28;20090;-64
2021/12/16 12:01:57;;;;;;;45.60;20.88;;;8.80;99.90;;;;;;5097433;28;20039;-64
2021/12/16 12:04:31;;;;;;;59.78;21.25;;;8.80;99.90;;;;;;5091662;28;20032;-64
2021/12/16 12:06:58;;;;;;;58.47;22.80;;;8.90;99.90;;;;;;5094501;28;20109;-64
2021/12/16 12:09:40;;;;;;;54.20;23.42;;;8.90;99.90;;;;;;5094053;28;20676;-64
2021/12/16 12:12:07;;;;;;;51.88;22.02;;;8.80;99.90;;;;;;5095418;28;20197;-64
2021/12/16 12:14:35;;;;;;;55.15;21.90;;;8.80;99.90;;;;;;5097301;28;20375;-64
2021/12/16 12:17:16;;;;;;;53.85;21.05;;;8.80;99.90;;;;;;5097672;28;20047;-64
2021/12/16 12:19:50;;;;;;;57.53;23.00;;;8.90;99.90;;;;;;5094832;28;20052;-64
2021/12/16 12:22:22;;;;;;;72.15;23.02;;;8.90;99.90;;;;;;5129729;27;20039;-64
2021/12/16 12:24:48;;;;;;;69.57;23.00;;;8.90;99.90;;;;;;5096332;28;20044;-64
2021/12/16 12:27:23;;;;;;;60.75;23.50;;;8.90;99.90;;;;;;5097198;28;20039;-64
2021/12/16 12:29:50;;;;;;;61.22;21.23;;;8.90;99.90;;;;;;5098067;27;20038;-64
2021/12/16 12:32:37;;;;;;;57.10;22.83;;;8.90;99.90;;;;;;5130078;27;20500;-64
2021/12/16 12:35:07;;;;;;;65.18;22.23;;;8.80;99.90;;;;;;5094039;28;20036;-64
2021/12/16 12:37:37;;;;;;;53.70;21.73;;;8.80;99.90;;;;;;5097934;28;20044;-64
2021/12/16 12:40:08;;;;;;;43.58;22.00;;;8.80;99.90;;;;;;5098747;28;20070;-64
2021/12/16 12:42:35;;;;;;;63.35;22.08;;;8.90;99.90;;;;;;5097900;28;20606;-64
2021/12/16 12:45:08;;;;;;;54.92;22.35;;;8.90;99.90;;;;;;5097811;28;20035;-64
2021/12/16 12:47:36;;;;;;;50.00;21.38;;;8.90;99.90;;;;;;5096830;28;20032;-64
2021/12/16 12:50:16;;;;;;;72.47;24.00;;;9.00;99.90;;;;;;5094266;28;20054;-64
2021/12/16 12:52:46;;;;;;;49.85;20.67;;;9.00;99.90;;;;;;5096343;28;20063;-64
2021/12/16 12:55:31;;;;;;;51.10;19.65;;;9.00;99.90;;;;;;5099979;28;20115;-64
2021/12/16 12:58:02;;;;;;;43.17;19.83;;;9.10;99.90;;;;;;5093663;28;20043;-64
2021/12/16 13:00:47;;;;;;;61.78;20.73;;;9.10;99.90;;;;;;5095364;27;20051;-64
2021/12/16 13:03:31;;;;;;;66.00;20.38;;;9.10;99.90;;;;;;5092837;28;20055;-64
2021/12/16 13:06:13;;;;;;;49.60;20.02;;;9.20;99.90;;;;;;5094868;28;20036;-64
2021/12/16 13:08:45;;;;;;;52.33;18.92;;;9.30;99.90;;;;;;5097549;28;20047;-64
2021/12/16 13:11:15;;;;;;;51.03;20.58;;;9.30;99.90;;;;;;5097636;28;20032;-64
2021/12/16 13:14:16;;;;;;;61.53;22.58;;;9.40;99.90;;;;;;5132360;27;20046;-64
2021/12/16 13:17:18;;;;;;;56.65;20.67;;;9.40;99.90;;;;;;5096418;28;20042;-64
2021/12/16 13:31:06;;;;;;;54.05;23.15;;;9.40;99.90;;;;;;5128904;27;20675;-64
2021/12/16 13:33:43;;;;;;;44.80;20.90;;;9.40;99.90;;;;;;5094674;28;20032;-64
2021/12/16 13:36:18;;;;;;;54.17;21.55;;;9.30;99.90;;;;;;5129670;27;20122;-64
2021/12/16 13:38:48;;;;;;;54.97;20.10;;;9.30;99.90;;;;;;5096263;27;20051;-64
2021/12/16 13:41:25;;;;;;;52.92;18.85;;;9.30;99.90;;;;;;5127370;27;20039;-64
2021/12/16 13:44:14;;;;;;;37.80;17.92;;;9.30;99.90;;;;;;5093586;28;20043;-64
2021/12/16 13:47:09;;;;;;;43.45;18.30;;;9.30;99.90;;;;;;5096414;28;20051;-64
2021/12/16 14:02:31;;;;;;;38.58;18.02;;;9.20;99.90;;;;;;5095589;28;20047;-64
2021/12/16 14:05:18;;;;;;;33.00;17.30;;;9.30;99.90;;;;;;5097218;27;20047;-64
2021/12/16 14:08:08;;;;;;;40.72;18.85;;;9.30;99.90;;;;;;5099921;28;20126;-64
2021/12/16 14:10:44;;;;;;;29.83;17.45;;;9.40;99.90;;;;;;5096083;28;20050;-64
2021/12/16 14:16:00;;;;;;;34.70;18.27;;;9.30;99.90;;;;;;5095398;28;20043;-65
2021/12/16 14:25:09;;;;;;;37.55;19.80;;;9.30;99.90;;;;;;5095242;28;20008;-64
2021/12/16 14:34:54;;;;;;;32.15;16.83;;;9.20;99.90;;;;;;5094359;28;20078;-64
2021/12/16 14:39:16;;;;;;;32.25;15.88;;;9.10;99.90;;;;;;5096422;28;20050;-64
2021/12/16 14:41:49;;;;;;;29.98;16.98;;;9.10;99.90;;;;;;5096433;28;20126;-64
2021/12/16 14:49:38;;;;;;;64.10;16.85;;;9.10;99.90;;;;;;5129009;27;20173;-64
2021/12/16 14:52:12;;;;;;;31.73;16.48;;;9.10;99.90;;;;;;5094459;28;20032;-64
2021/12/16 14:54:50;;;;;;;35.35;16.30;;;9.10;99.90;;;;;;5126571;27;20224;-64
2021/12/16 14:57:22;;;;;;;52.28;17.17;;;9.10;99.90;;;;;;5109904;27;20866;-64
2021/12/16 14:59:47;;;;;;;36.47;17.85;;;9.10;99.90;;;;;;5094164;28;20040;-64
2021/12/16 15:02:16;;;;;;;51.67;18.05;;;9.10;99.90;;;;;;5094102;28;20043;-64
2021/12/16 15:04:41;;;;;;;45.42;18.27;;;9.10;99.90;;;;;;5094971;28;20039;-64
2021/12/16 15:07:10;;;;;;;52.50;17.92;;;9.20;99.90;;;;;;5094135;28;20073;-64
2021/12/16 15:09:39;;;;;;;40.22;16.05;;;9.10;99.90;;;;;;5096788;28;20023;-64
2021/12/16 15:12:26;;;;;;;65.22;17.08;;;9.10;99.90;;;;;;5095325;28;20040;-64
2021/12/16 15:37:14;;;;;;;38.60;16.58;;;9.10;99.90;;;;;;5096664;28;20070;-64
2021/12/16 15:40:10;;;;;;;53.40;16.55;;;9.10;99.90;;;;;;5094086;28;20066;-64
2021/12/16 15:42:54;;;;;;;39.78;15.55;;;9.10;99.90;;;;;;5092332;28;20066;-64
2021/12/16 15:45:25;;;;;;;41.15;16.98;;;9.10;99.90;;;;;;5093279;28;20105;-64
2021/12/16 15:47:58;;;;;;;51.90;16.38;;;9.10;99.90;;;;;;5099229;28;20067;-64
2021/12/16 15:50:31;;;;;;;33.33;16.08;;;9.20;99.90;;;;;;5100173;28;20355;-64
2021/12/16 15:52:59;;;;;;;25.88;14.68;;;9.10;99.90;;;;;;5131507;27;20599;-64
2021/12/16 15:55:40;;;;;;;25.73;14.45;;;9.20;99.90;;;;;;5095778;28;20043;-64
2021/12/16 15:58:20;;;;;;;29.30;14.07;;;9.20;99.90;;;;;;5097698;28;20052;-64
2021/12/16 16:00:52;;;;;;;25.08;14.18;;;9.20;99.90;;;;;;5096943;27;20374;-64
2021/12/16 16:03:20;;;;;;;26.80;13.90;;;9.20;99.90;;;;;;5098501;28;20150;-64
2021/12/16 16:05:52;;;;;;;53.50;17.33;;;9.20;99.90;;;;;;5098660;28;20046;-64
2021/12/16 16:08:20;;;;;;;33.03;13.65;;;9.20;99.90;;;;;;5127235;27;20051;-65
2021/12/16 16:10:50;;;;;;;23.95;14.05;;;9.20;99.90;;;;;;5095341;28;20105;-64
2021/12/16 16:13:23;;;;;;;18.85;12.70;;;9.20;99.90;;;;;;5095300;28;20035;-64
2021/12/16 16:15:51;;;;;;;18.80;11.20;;;9.20;99.90;;;;;;5096856;28;20156;-64
2021/12/16 16:21:36;;;;;;;20.60;12.45;;;9.30;99.90;;;;;;5083774;28;20052;-64
2021/12/16 16:24:07;;;;;;;26.45;13.45;;;9.20;99.90;;;;;;5094908;28;20478;-64